sensor_id;sensor_type;location;lat;lon;timestamp;temperature;humidity
66102;HTU21D;52883;51.094;5.880;2024-03-02T00:00:11;10.12;98.42
66102;HTU21D;52883;51.094;5.880;2024-03-02T00:02:46;10.14;95.39
66102;HTU21D;52883;51.094;5.880;2024-03-02T00:05:13;10.23;97.27
66102;HTU21D;52883;51.094;5.880;2024-03-02T00:07:43;10.28;94.36
66102;HTU21D;52883;51.094;5.880;2024-03-02T00:10:10;10.25;95.22
66102;HTU21D;52883;51.094;5.880;2024-03-02T00:12:40;10.26;95.77
66102;HTU21D;52883;51.094;5.880;2024-03-02T00:17:55;10.31;96.23
66102;HTU21D;52883;51.094;5.880;2024-03-02T00:20:24;10.29;94.70
66102;HTU21D;52883;51.094;5.880;2024-03-02T00:23:03;10.38;93.71
66102;HTU21D;52883;51.094;5.880;2024-03-02T00:25:44;10.37;92.65
66102;HTU21D;52883;51.094;5.880;2024-03-02T00:28:19;10.49;90.89
66102;HTU21D;52883;51.094;5.880;2024-03-02T00:33:21;10.52;90.28
66102;HTU21D;52883;51.094;5.880;2024-03-02T00:35:48;10.46;93.17
66102;HTU21D;52883;51.094;5.880;2024-03-02T00:38:15;10.44;93.51
66102;HTU21D;52883;51.094;5.880;2024-03-02T00:40:45;10.44;91.82
66102;HTU21D;52883;51.094;5.880;2024-03-02T00:46:02;10.51;92.10
66102;HTU21D;52883;51.094;5.880;2024-03-02T00:48:29;10.46;93.57
66102;HTU21D;52883;51.094;5.880;2024-03-02T00:50:57;10.48;93.56
66102;HTU21D;52883;51.094;5.880;2024-03-02T00:53:25;10.51;94.52
66102;HTU21D;52883;51.094;5.880;2024-03-02T00:55:52;10.48;95.03
66102;HTU21D;52883;51.094;5.880;2024-03-02T00:58:17;10.52;94.37
66102;HTU21D;52883;51.094;5.880;2024-03-02T01:00:43;10.49;95.25
66102;HTU21D;52883;51.094;5.880;2024-03-02T01:03:08;10.49;96.68
66102;HTU21D;52883;51.094;5.880;2024-03-02T01:05:36;10.43;98.48
66102;HTU21D;52883;51.094;5.880;2024-03-02T01:08:02;10.37;101.27
66102;HTU21D;52883;51.094;5.880;2024-03-02T01:10:28;10.25;114.39
66102;HTU21D;52883;51.094;5.880;2024-03-02T01:12:53;10.03;118.99
66102;HTU21D;52883;51.094;5.880;2024-03-02T01:15:19;9.68;118.99
66102;HTU21D;52883;51.094;5.880;2024-03-02T01:17:45;9.36;118.99
66102;HTU21D;52883;51.094;5.880;2024-03-02T01:20:11;9.11;118.99
66102;HTU21D;52883;51.094;5.880;2024-03-02T01:22:36;8.82;118.99
66102;HTU21D;52883;51.094;5.880;2024-03-02T01:25:03;8.60;118.99
66102;HTU21D;52883;51.094;5.880;2024-03-02T01:27:29;8.43;118.99
66102;HTU21D;52883;51.094;5.880;2024-03-02T01:29:54;8.30;118.99
66102;HTU21D;52883;51.094;5.880;2024-03-02T01:32:20;8.17;118.99
66102;HTU21D;52883;51.094;5.880;2024-03-02T01:34:46;8.11;118.99
66102;HTU21D;52883;51.094;5.880;2024-03-02T01:37:12;8.02;118.99
66102;HTU21D;52883;51.094;5.880;2024-03-02T01:39:37;7.97;118.99
66102;HTU21D;52883;51.094;5.880;2024-03-02T01:42:03;7.94;118.99
66102;HTU21D;52883;51.094;5.880;2024-03-02T01:44:29;7.88;118.99
66102;HTU21D;52883;51.094;5.880;2024-03-02T01:46:54;7.84;118.99
66102;HTU21D;52883;51.094;5.880;2024-03-02T01:49:20;7.81;118.99
66102;HTU21D;52883;51.094;5.880;2024-03-02T01:51:46;7.78;118.99
66102;HTU21D;52883;51.094;5.880;2024-03-02T01:54:11;7.75;118.99
66102;HTU21D;52883;51.094;5.880;2024-03-02T01:56:37;7.74;118.99
66102;HTU21D;52883;51.094;5.880;2024-03-02T01:59:03;7.75;118.99
66102;HTU21D;52883;51.094;5.880;2024-03-02T02:01:29;7.76;118.99
66102;HTU21D;52883;51.094;5.880;2024-03-02T02:03:54;7.77;118.99
66102;HTU21D;52883;51.094;5.880;2024-03-02T02:06:21;7.83;118.99
66102;HTU21D;52883;51.094;5.880;2024-03-02T02:08:47;7.83;118.99
66102;HTU21D;52883;51.094;5.880;2024-03-02T02:11:15;7.86;118.99
66102;HTU21D;52883;51.094;5.880;2024-03-02T02:13:41;7.82;118.99
66102;HTU21D;52883;51.094;5.880;2024-03-02T02:16:07;7.81;118.99
66102;HTU21D;52883;51.094;5.880;2024-03-02T02:18:33;7.74;118.99
66102;HTU21D;52883;51.094;5.880;2024-03-02T02:20:59;7.67;118.99
66102;HTU21D;52883;51.094;5.880;2024-03-02T02:23:25;7.61;118.99
66102;HTU21D;52883;51.094;5.880;2024-03-02T02:25:50;7.58;118.99
66102;HTU21D;52883;51.094;5.880;2024-03-02T02:28:16;7.55;118.99
66102;HTU21D;52883;51.094;5.880;2024-03-02T02:30:44;7.57;118.99
66102;HTU21D;52883;51.094;5.880;2024-03-02T02:33:10;7.59;118.99
66102;HTU21D;52883;51.094;5.880;2024-03-02T02:35:35;7.58;118.99
66102;HTU21D;52883;51.094;5.880;2024-03-02T02:38:02;7.58;118.99
66102;HTU21D;52883;51.094;5.880;2024-03-02T02:40:28;7.54;118.99
66102;HTU21D;52883;51.094;5.880;2024-03-02T02:42:57;7.49;118.99
66102;HTU21D;52883;51.094;5.880;2024-03-02T02:45:24;7.46;118.99
66102;HTU21D;52883;51.094;5.880;2024-03-02T02:47:50;7.42;118.99
66102;HTU21D;52883;51.094;5.880;2024-03-02T02:50:16;7.48;118.99
66102;HTU21D;52883;51.094;5.880;2024-03-02T02:52:42;7.45;118.99
66102;HTU21D;52883;51.094;5.880;2024-03-02T02:55:13;7.43;118.99
66102;HTU21D;52883;51.094;5.880;2024-03-02T02:57:40;7.42;118.99
66102;HTU21D;52883;51.094;5.880;2024-03-02T03:00:14;7.42;118.99
66102;HTU21D;52883;51.094;5.880;2024-03-02T03:02:44;7.45;118.99
66102;HTU21D;52883;51.094;5.880;2024-03-02T03:05:11;7.47;118.99
66102;HTU21D;52883;51.094;5.880;2024-03-02T03:07:39;7.50;118.99
66102;HTU21D;52883;51.094;5.880;2024-03-02T03:10:05;7.50;118.99
66102;HTU21D;52883;51.094;5.880;2024-03-02T03:12:33;7.53;118.99
66102;HTU21D;52883;51.094;5.880;2024-03-02T03:14:59;7.54;118.99
66102;HTU21D;52883;51.094;5.880;2024-03-02T03:17:25;7.50;118.99
66102;HTU21D;52883;51.094;5.880;2024-03-02T03:19:51;7.48;118.99
66102;HTU21D;52883;51.094;5.880;2024-03-02T03:22:17;7.45;118.99
66102;HTU21D;52883;51.094;5.880;2024-03-02T03:24:43;7.45;118.99
66102;HTU21D;52883;51.094;5.880;2024-03-02T03:27:09;7.43;118.99
66102;HTU21D;52883;51.094;5.880;2024-03-02T03:29:36;7.41;118.99
66102;HTU21D;52883;51.094;5.880;2024-03-02T03:32:02;7.42;118.99
66102;HTU21D;52883;51.094;5.880;2024-03-02T03:34:27;7.41;118.99
66102;HTU21D;52883;51.094;5.880;2024-03-02T03:36:54;7.40;118.99
66102;HTU21D;52883;51.094;5.880;2024-03-02T03:39:20;7.39;118.99
66102;HTU21D;52883;51.094;5.880;2024-03-02T03:41:46;7.38;118.99
66102;HTU21D;52883;51.094;5.880;2024-03-02T03:44:11;7.39;118.99
66102;HTU21D;52883;51.094;5.880;2024-03-02T03:46:37;7.41;118.99
66102;HTU21D;52883;51.094;5.880;2024-03-02T03:49:03;7.38;118.99
66102;HTU21D;52883;51.094;5.880;2024-03-02T03:51:29;7.41;118.99
66102;HTU21D;52883;51.094;5.880;2024-03-02T03:53:56;7.39;118.99
66102;HTU21D;52883;51.094;5.880;2024-03-02T03:56:21;7.39;118.99
66102;HTU21D;52883;51.094;5.880;2024-03-02T03:58:47;7.38;118.99
66102;HTU21D;52883;51.094;5.880;2024-03-02T04:01:12;7.39;118.99
66102;HTU21D;52883;51.094;5.880;2024-03-02T04:03:38;7.39;118.99
66102;HTU21D;52883;51.094;5.880;2024-03-02T04:06:04;7.39;118.99
66102;HTU21D;52883;51.094;5.880;2024-03-02T04:08:29;7.39;118.99
66102;HTU21D;52883;51.094;5.880;2024-03-02T04:10:55;7.42;118.99
66102;HTU21D;52883;51.094;5.880;2024-03-02T04:13:21;7.42;118.99
66102;HTU21D;52883;51.094;5.880;2024-03-02T04:15:46;7.42;118.99
66102;HTU21D;52883;51.094;5.880;2024-03-02T04:18:12;7.45;118.99
66102;HTU21D;52883;51.094;5.880;2024-03-02T04:20:38;7.41;118.99
66102;HTU21D;52883;51.094;5.880;2024-03-02T04:23:03;7.37;118.99
66102;HTU21D;52883;51.094;5.880;2024-03-02T04:25:29;7.31;118.99
66102;HTU21D;52883;51.094;5.880;2024-03-02T04:27:54;7.27;118.99
66102;HTU21D;52883;51.094;5.880;2024-03-02T04:30:20;7.24;118.99
66102;HTU21D;52883;51.094;5.880;2024-03-02T04:32:46;7.26;118.99
66102;HTU21D;52883;51.094;5.880;2024-03-02T04:35:12;7.24;118.99
66102;HTU21D;52883;51.094;5.880;2024-03-02T04:37:38;7.25;118.99
66102;HTU21D;52883;51.094;5.880;2024-03-02T04:40:05;7.23;118.99
66102;HTU21D;52883;51.094;5.880;2024-03-02T04:42:34;7.22;118.99
66102;HTU21D;52883;51.094;5.880;2024-03-02T04:44:59;7.25;118.99
66102;HTU21D;52883;51.094;5.880;2024-03-02T04:47:25;7.24;118.99
66102;HTU21D;52883;51.094;5.880;2024-03-02T04:49:50;7.23;118.99
66102;HTU21D;52883;51.094;5.880;2024-03-02T04:52:16;7.23;118.99
66102;HTU21D;52883;51.094;5.880;2024-03-02T04:54:43;7.26;118.99
66102;HTU21D;52883;51.094;5.880;2024-03-02T04:57:27;7.25;118.99
66102;HTU21D;52883;51.094;5.880;2024-03-02T04:59:55;7.28;118.99
66102;HTU21D;52883;51.094;5.880;2024-03-02T05:02:20;7.30;118.99
66102;HTU21D;52883;51.094;5.880;2024-03-02T05:04:46;7.29;118.99
66102;HTU21D;52883;51.094;5.880;2024-03-02T05:07:13;7.29;118.99
66102;HTU21D;52883;51.094;5.880;2024-03-02T05:09:39;7.30;118.99
66102;HTU21D;52883;51.094;5.880;2024-03-02T05:12:05;7.34;118.99
66102;HTU21D;52883;51.094;5.880;2024-03-02T05:14:30;7.31;118.99
66102;HTU21D;52883;51.094;5.880;2024-03-02T05:16:56;7.31;118.99
66102;HTU21D;52883;51.094;5.880;2024-03-02T05:19:21;7.35;118.99
66102;HTU21D;52883;51.094;5.880;2024-03-02T05:21:47;7.38;118.99
66102;HTU21D;52883;51.094;5.880;2024-03-02T05:24:14;7.37;118.99
66102;HTU21D;52883;51.094;5.880;2024-03-02T05:26:39;7.35;118.99
66102;HTU21D;52883;51.094;5.880;2024-03-02T05:29:05;7.35;118.99
66102;HTU21D;52883;51.094;5.880;2024-03-02T05:31:30;7.34;118.99
66102;HTU21D;52883;51.094;5.880;2024-03-02T05:33:56;7.34;118.99
66102;HTU21D;52883;51.094;5.880;2024-03-02T05:36:21;7.31;118.99
66102;HTU21D;52883;51.094;5.880;2024-03-02T05:38:47;7.29;118.99
66102;HTU21D;52883;51.094;5.880;2024-03-02T05:41:12;7.31;118.99
66102;HTU21D;52883;51.094;5.880;2024-03-02T05:43:40;7.31;118.99
66102;HTU21D;52883;51.094;5.880;2024-03-02T05:46:06;7.34;118.99
66102;HTU21D;52883;51.094;5.880;2024-03-02T05:48:31;7.28;118.99
66102;HTU21D;52883;51.094;5.880;2024-03-02T05:50:57;7.24;118.99
66102;HTU21D;52883;51.094;5.880;2024-03-02T05:53:22;7.24;118.99
66102;HTU21D;52883;51.094;5.880;2024-03-02T05:55:48;7.27;118.99
66102;HTU21D;52883;51.094;5.880;2024-03-02T05:58:18;7.23;118.99
66102;HTU21D;52883;51.094;5.880;2024-03-02T06:01:13;7.28;118.99
66102;HTU21D;52883;51.094;5.880;2024-03-02T06:03:39;7.30;118.99
66102;HTU21D;52883;51.094;5.880;2024-03-02T06:06:04;7.24;118.99
66102;HTU21D;52883;51.094;5.880;2024-03-02T06:08:31;7.16;118.99
66102;HTU21D;52883;51.094;5.880;2024-03-02T06:10:56;7.04;118.99
66102;HTU21D;52883;51.094;5.880;2024-03-02T06:13:22;6.96;118.99
66102;HTU21D;52883;51.094;5.880;2024-03-02T06:15:48;6.97;118.99
66102;HTU21D;52883;51.094;5.880;2024-03-02T06:18:14;7.03;118.99
66102;HTU21D;52883;51.094;5.880;2024-03-02T06:20:39;7.07;118.99
66102;HTU21D;52883;51.094;5.880;2024-03-02T06:23:05;7.07;118.99
66102;HTU21D;52883;51.094;5.880;2024-03-02T06:25:30;7.05;118.99
66102;HTU21D;52883;51.094;5.880;2024-03-02T06:27:56;7.05;118.99
66102;HTU21D;52883;51.094;5.880;2024-03-02T06:30:21;7.05;118.99
66102;HTU21D;52883;51.094;5.880;2024-03-02T06:32:47;7.04;118.99
66102;HTU21D;52883;51.094;5.880;2024-03-02T06:35:13;7.03;118.99
66102;HTU21D;52883;51.094;5.880;2024-03-02T06:37:39;6.99;118.99
66102;HTU21D;52883;51.094;5.880;2024-03-02T06:40:08;6.93;118.99
66102;HTU21D;52883;51.094;5.880;2024-03-02T06:42:35;6.89;118.99
66102;HTU21D;52883;51.094;5.880;2024-03-02T06:45:02;6.82;118.99
66102;HTU21D;52883;51.094;5.880;2024-03-02T06:47:28;6.78;118.99
66102;HTU21D;52883;51.094;5.880;2024-03-02T06:49:53;6.69;118.99
66102;HTU21D;52883;51.094;5.880;2024-03-02T06:52:19;6.57;118.99
66102;HTU21D;52883;51.094;5.880;2024-03-02T06:54:46;6.50;118.99
66102;HTU21D;52883;51.094;5.880;2024-03-02T06:57:12;6.40;118.99
66102;HTU21D;52883;51.094;5.880;2024-03-02T06:59:37;6.36;118.99
66102;HTU21D;52883;51.094;5.880;2024-03-02T07:02:03;6.36;118.99
66102;HTU21D;52883;51.094;5.880;2024-03-02T07:04:29;6.38;118.99
66102;HTU21D;52883;51.094;5.880;2024-03-02T07:06:54;6.42;118.99
66102;HTU21D;52883;51.094;5.880;2024-03-02T07:09:20;6.52;118.99
66102;HTU21D;52883;51.094;5.880;2024-03-02T07:11:48;6.59;118.99
66102;HTU21D;52883;51.094;5.880;2024-03-02T07:14:14;6.59;118.99
66102;HTU21D;52883;51.094;5.880;2024-03-02T07:16:40;6.61;118.99
66102;HTU21D;52883;51.094;5.880;2024-03-02T07:19:06;6.69;118.99
66102;HTU21D;52883;51.094;5.880;2024-03-02T07:21:32;6.84;118.99
66102;HTU21D;52883;51.094;5.880;2024-03-02T07:24:00;7.13;118.99
66102;HTU21D;52883;51.094;5.880;2024-03-02T07:26:30;7.47;118.99
66102;HTU21D;52883;51.094;5.880;2024-03-02T07:28:57;7.87;118.99
66102;HTU21D;52883;51.094;5.880;2024-03-02T07:31:22;8.20;118.99
66102;HTU21D;52883;51.094;5.880;2024-03-02T07:33:48;8.58;118.99
66102;HTU21D;52883;51.094;5.880;2024-03-02T07:36:14;8.93;118.99
66102;HTU21D;52883;51.094;5.880;2024-03-02T07:38:40;9.31;118.99
66102;HTU21D;52883;51.094;5.880;2024-03-02T07:41:06;9.61;118.99
66102;HTU21D;52883;51.094;5.880;2024-03-02T07:43:33;9.67;118.99
66102;HTU21D;52883;51.094;5.880;2024-03-02T07:45:59;9.69;118.99
66102;HTU21D;52883;51.094;5.880;2024-03-02T07:48:25;9.77;118.99
66102;HTU21D;52883;51.094;5.880;2024-03-02T07:50:51;9.91;118.99
66102;HTU21D;52883;51.094;5.880;2024-03-02T07:53:16;10.07;118.99
66102;HTU21D;52883;51.094;5.880;2024-03-02T07:55:42;10.13;118.99
66102;HTU21D;52883;51.094;5.880;2024-03-02T07:58:08;10.08;118.99
66102;HTU21D;52883;51.094;5.880;2024-03-02T08:00:34;9.90;118.99
66102;HTU21D;52883;51.094;5.880;2024-03-02T08:03:01;9.80;118.99
66102;HTU21D;52883;51.094;5.880;2024-03-02T08:05:26;9.78;118.99
66102;HTU21D;52883;51.094;5.880;2024-03-02T08:07:53;9.74;118.99
66102;HTU21D;52883;51.094;5.880;2024-03-02T08:10:18;9.74;118.99
66102;HTU21D;52883;51.094;5.880;2024-03-02T08:12:45;9.62;118.99
66102;HTU21D;52883;51.094;5.880;2024-03-02T08:15:10;9.54;118.99
66102;HTU21D;52883;51.094;5.880;2024-03-02T08:17:39;9.52;118.99
66102;HTU21D;52883;51.094;5.880;2024-03-02T08:20:11;9.54;118.99
66102;HTU21D;52883;51.094;5.880;2024-03-02T08:22:36;9.62;118.99
66102;HTU21D;52883;51.094;5.880;2024-03-02T08:25:03;9.82;118.99
66102;HTU21D;52883;51.094;5.880;2024-03-02T08:27:28;10.03;118.99
66102;HTU21D;52883;51.094;5.880;2024-03-02T08:29:54;10.08;118.99
66102;HTU21D;52883;51.094;5.880;2024-03-02T08:32:19;10.01;118.99
66102;HTU21D;52883;51.094;5.880;2024-03-02T08:34:45;10.05;118.99
66102;HTU21D;52883;51.094;5.880;2024-03-02T08:37:11;10.05;118.99
66102;HTU21D;52883;51.094;5.880;2024-03-02T08:39:36;10.08;118.99
66102;HTU21D;52883;51.094;5.880;2024-03-02T08:42:02;10.05;118.99
66102;HTU21D;52883;51.094;5.880;2024-03-02T08:44:30;10.04;118.99
66102;HTU21D;52883;51.094;5.880;2024-03-02T08:46:56;10.22;118.99
66102;HTU21D;52883;51.094;5.880;2024-03-02T08:49:21;10.49;118.99
66102;HTU21D;52883;51.094;5.880;2024-03-02T08:51:47;10.73;118.99
66102;HTU21D;52883;51.094;5.880;2024-03-02T08:54:23;10.96;118.99
66102;HTU21D;52883;51.094;5.880;2024-03-02T08:56:49;11.22;118.99
66102;HTU21D;52883;51.094;5.880;2024-03-02T08:59:16;11.32;114.05
66102;HTU21D;52883;51.094;5.880;2024-03-02T09:01:42;11.43;113.12
66102;HTU21D;52883;51.094;5.880;2024-03-02T09:04:08;11.60;105.95
66102;HTU21D;52883;51.094;5.880;2024-03-02T09:06:34;11.66;102.38
66102;HTU21D;52883;51.094;5.880;2024-03-02T09:09:00;11.57;103.82
66102;HTU21D;52883;51.094;5.880;2024-03-02T09:11:26;11.45;100.37
66102;HTU21D;52883;51.094;5.880;2024-03-02T09:13:52;11.34;104.76
66102;HTU21D;52883;51.094;5.880;2024-03-02T09:16:18;11.33;101.05
66102;HTU21D;52883;51.094;5.880;2024-03-02T09:18:44;11.22;98.39
66102;HTU21D;52883;51.094;5.880;2024-03-02T09:21:10;11.29;91.46
66102;HTU21D;52883;51.094;5.880;2024-03-02T09:23:36;11.56;92.93
66102;HTU21D;52883;51.094;5.880;2024-03-02T09:26:01;11.86;96.47
66102;HTU21D;52883;51.094;5.880;2024-03-02T09:28:28;12.15;92.01
66102;HTU21D;52883;51.094;5.880;2024-03-02T09:30:54;12.35;82.70
66102;HTU21D;52883;51.094;5.880;2024-03-02T09:33:19;12.47;88.41
66102;HTU21D;52883;51.094;5.880;2024-03-02T09:35:45;12.75;82.71
66102;HTU21D;52883;51.094;5.880;2024-03-02T09:38:10;12.69;74.02
66102;HTU21D;52883;51.094;5.880;2024-03-02T09:40:36;12.78;75.09
66102;HTU21D;52883;51.094;5.880;2024-03-02T09:43:02;12.62;70.11
66102;HTU21D;52883;51.094;5.880;2024-03-02T09:45:30;12.55;72.64
66102;HTU21D;52883;51.094;5.880;2024-03-02T09:47:56;12.66;69.02
66102;HTU21D;52883;51.094;5.880;2024-03-02T09:50:22;12.73;75.63
66102;HTU21D;52883;51.094;5.880;2024-03-02T09:52:49;12.90;67.66
66102;HTU21D;52883;51.094;5.880;2024-03-02T09:55:16;13.00;67.45
66102;HTU21D;52883;51.094;5.880;2024-03-02T09:57:43;13.12;66.12
66102;HTU21D;52883;51.094;5.880;2024-03-02T10:00:09;13.29;68.93
66102;HTU21D;52883;51.094;5.880;2024-03-02T10:02:43;13.50;68.33
66102;HTU21D;52883;51.094;5.880;2024-03-02T10:05:09;13.76;67.27
66102;HTU21D;52883;51.094;5.880;2024-03-02T10:07:35;13.91;62.80
66102;HTU21D;52883;51.094;5.880;2024-03-02T10:10:13;14.05;66.17
66102;HTU21D;52883;51.094;5.880;2024-03-02T10:12:39;14.22;67.14
66102;HTU21D;52883;51.094;5.880;2024-03-02T10:15:05;14.68;65.59
66102;HTU21D;52883;51.094;5.880;2024-03-02T10:17:31;15.04;61.38
66102;HTU21D;52883;51.094;5.880;2024-03-02T10:19:57;15.14;54.36
66102;HTU21D;52883;51.094;5.880;2024-03-02T10:22:23;15.00;56.08
66102;HTU21D;52883;51.094;5.880;2024-03-02T10:24:49;15.07;53.58
66102;HTU21D;52883;51.094;5.880;2024-03-02T10:27:16;15.12;52.05
66102;HTU21D;52883;51.094;5.880;2024-03-02T10:29:47;14.98;51.32
66102;HTU21D;52883;51.094;5.880;2024-03-02T10:32:13;15.02;52.51
66102;HTU21D;52883;51.094;5.880;2024-03-02T10:34:44;15.31;49.77
66102;HTU21D;52883;51.094;5.880;2024-03-02T10:37:12;15.04;46.73
66102;HTU21D;52883;51.094;5.880;2024-03-02T10:39:39;14.72;47.19
66102;HTU21D;52883;51.094;5.880;2024-03-02T10:42:09;14.62;49.34
66102;HTU21D;52883;51.094;5.880;2024-03-02T10:44:34;14.68;48.70
66102;HTU21D;52883;51.094;5.880;2024-03-02T10:47:04;14.66;47.74
66102;HTU21D;52883;51.094;5.880;2024-03-02T10:49:31;14.47;45.11
66102;HTU21D;52883;51.094;5.880;2024-03-02T10:51:58;14.22;46.71
66102;HTU21D;52883;51.094;5.880;2024-03-02T10:54:24;14.14;47.87
66102;HTU21D;52883;51.094;5.880;2024-03-02T10:56:58;14.17;44.89
66102;HTU21D;52883;51.094;5.880;2024-03-02T10:59:36;14.40;48.44
66102;HTU21D;52883;51.094;5.880;2024-03-02T11:02:04;14.80;49.47
66102;HTU21D;52883;51.094;5.880;2024-03-02T11:04:31;15.11;48.58
66102;HTU21D;52883;51.094;5.880;2024-03-02T11:07:07;15.61;42.82
66102;HTU21D;52883;51.094;5.880;2024-03-02T11:09:38;15.52;43.08
66102;HTU21D;52883;51.094;5.880;2024-03-02T11:12:26;15.59;44.26
66102;HTU21D;52883;51.094;5.880;2024-03-02T11:14:55;15.84;42.59
66102;HTU21D;52883;51.094;5.880;2024-03-02T11:17:22;15.93;38.65
66102;HTU21D;52883;51.094;5.880;2024-03-02T11:19:49;15.72;38.57
66102;HTU21D;52883;51.094;5.880;2024-03-02T11:22:16;15.57;40.88
66102;HTU21D;52883;51.094;5.880;2024-03-02T11:24:50;15.77;42.29
66102;HTU21D;52883;51.094;5.880;2024-03-02T11:33:00;15.90;35.57
66102;HTU21D;52883;51.094;5.880;2024-03-02T11:35:26;15.66;37.31
66102;HTU21D;52883;51.094;5.880;2024-03-02T11:37:55;15.59;38.11
66102;HTU21D;52883;51.094;5.880;2024-03-02T11:40:28;15.65;36.78
66102;HTU21D;52883;51.094;5.880;2024-03-02T11:42:54;15.80;35.76
66102;HTU21D;52883;51.094;5.880;2024-03-02T11:45:27;15.88;35.08
66102;HTU21D;52883;51.094;5.880;2024-03-02T11:47:54;16.15;33.45
66102;HTU21D;52883;51.094;5.880;2024-03-02T11:50:41;16.35;33.85
66102;HTU21D;52883;51.094;5.880;2024-03-02T11:53:09;16.32;34.60
66102;HTU21D;52883;51.094;5.880;2024-03-02T11:55:36;16.48;32.99
66102;HTU21D;52883;51.094;5.880;2024-03-02T11:58:04;16.49;28.75
66102;HTU21D;52883;51.094;5.880;2024-03-02T12:00:30;16.47;32.02
66102;HTU21D;52883;51.094;5.880;2024-03-02T12:03:03;16.58;31.68
66102;HTU21D;52883;51.094;5.880;2024-03-02T12:05:30;16.65;30.28
66102;HTU21D;52883;51.094;5.880;2024-03-02T12:08:00;16.76;31.04
66102;HTU21D;52883;51.094;5.880;2024-03-02T12:10:27;16.70;27.52
66102;HTU21D;52883;51.094;5.880;2024-03-02T12:13:00;16.78;31.00
66102;HTU21D;52883;51.094;5.880;2024-03-02T12:15:28;16.95;30.70
66102;HTU21D;52883;51.094;5.880;2024-03-02T12:18:01;17.19;29.55
66102;HTU21D;52883;51.094;5.880;2024-03-02T12:20:29;17.39;29.35
66102;HTU21D;52883;51.094;5.880;2024-03-02T12:23:00;17.23;29.55
66102;HTU21D;52883;51.094;5.880;2024-03-02T12:25:28;16.81;28.52
66102;HTU21D;52883;51.094;5.880;2024-03-02T12:27:59;16.31;29.19
66102;HTU21D;52883;51.094;5.880;2024-03-02T12:30:27;16.12;30.32
66102;HTU21D;52883;51.094;5.880;2024-03-02T12:32:54;16.24;31.35
66102;HTU21D;52883;51.094;5.880;2024-03-02T12:35:20;16.30;30.15
66102;HTU21D;52883;51.094;5.880;2024-03-02T12:37:48;16.20;31.10
66102;HTU21D;52883;51.094;5.880;2024-03-02T12:40:15;16.27;30.44
66102;HTU21D;52883;51.094;5.880;2024-03-02T12:42:44;16.21;29.87
66102;HTU21D;52883;51.094;5.880;2024-03-02T12:45:11;16.51;30.69
66102;HTU21D;52883;51.094;5.880;2024-03-02T12:47:38;16.96;29.02
66102;HTU21D;52883;51.094;5.880;2024-03-02T12:50:05;17.48;28.16
66102;HTU21D;52883;51.094;5.880;2024-03-02T12:52:31;17.66;28.61
66102;HTU21D;52883;51.094;5.880;2024-03-02T12:55:01;17.66;26.04
66102;HTU21D;52883;51.094;5.880;2024-03-02T12:57:30;17.67;27.16
66102;HTU21D;52883;51.094;5.880;2024-03-02T13:00:01;17.85;27.37
66102;HTU21D;52883;51.094;5.880;2024-03-02T13:02:31;18.02;26.12
66102;HTU21D;52883;51.094;5.880;2024-03-02T13:04:58;17.83;25.31
66102;HTU21D;52883;51.094;5.880;2024-03-02T13:07:25;17.64;25.70
66102;HTU21D;52883;51.094;5.880;2024-03-02T13:09:51;17.36;26.05
66102;HTU21D;52883;51.094;5.880;2024-03-02T13:12:19;17.20;28.17
66102;HTU21D;52883;51.094;5.880;2024-03-02T13:14:48;17.32;28.30
66102;HTU21D;52883;51.094;5.880;2024-03-02T13:17:14;17.60;27.62
66102;HTU21D;52883;51.094;5.880;2024-03-02T13:19:56;17.67;27.63
66102;HTU21D;52883;51.094;5.880;2024-03-02T13:22:23;17.25;27.20
66102;HTU21D;52883;51.094;5.880;2024-03-02T13:24:49;16.92;28.86
66102;HTU21D;52883;51.094;5.880;2024-03-02T13:27:15;16.66;28.85
66102;HTU21D;52883;51.094;5.880;2024-03-02T13:29:42;16.61;29.51
66102;HTU21D;52883;51.094;5.880;2024-03-02T13:32:08;16.59;29.13
66102;HTU21D;52883;51.094;5.880;2024-03-02T13:34:35;16.49;27.84
66102;HTU21D;52883;51.094;5.880;2024-03-02T13:37:03;16.31;28.77
66102;HTU21D;52883;51.094;5.880;2024-03-02T13:39:29;16.24;29.67
66102;HTU21D;52883;51.094;5.880;2024-03-02T13:41:57;16.35;29.77
66102;HTU21D;52883;51.094;5.880;2024-03-02T13:44:30;16.36;29.01
66102;HTU21D;52883;51.094;5.880;2024-03-02T13:46:56;16.28;28.45
66102;HTU21D;52883;51.094;5.880;2024-03-02T13:49:21;16.21;29.52
66102;HTU21D;52883;51.094;5.880;2024-03-02T13:51:48;16.48;29.13
66102;HTU21D;52883;51.094;5.880;2024-03-02T13:54:14;16.57;28.68
66102;HTU21D;52883;51.094;5.880;2024-03-02T13:56:40;16.89;28.91
66102;HTU21D;52883;51.094;5.880;2024-03-02T13:59:07;17.38;29.06
66102;HTU21D;52883;51.094;5.880;2024-03-02T14:01:33;17.92;27.35
66102;HTU21D;52883;51.094;5.880;2024-03-02T14:03:59;17.88;26.88
66102;HTU21D;52883;51.094;5.880;2024-03-02T14:06:24;17.88;27.97
66102;HTU21D;52883;51.094;5.880;2024-03-02T14:08:52;17.92;26.95
66102;HTU21D;52883;51.094;5.880;2024-03-02T14:11:18;17.77;28.29
66102;HTU21D;52883;51.094;5.880;2024-03-02T14:13:44;17.80;28.09
66102;HTU21D;52883;51.094;5.880;2024-03-02T14:16:15;17.78;28.85
66102;HTU21D;52883;51.094;5.880;2024-03-02T14:18:42;17.72;28.71
66102;HTU21D;52883;51.094;5.880;2024-03-02T14:21:08;17.39;28.03
66102;HTU21D;52883;51.094;5.880;2024-03-02T14:23:33;16.77;28.65
66102;HTU21D;52883;51.094;5.880;2024-03-02T14:25:59;16.51;29.39
66102;HTU21D;52883;51.094;5.880;2024-03-02T14:28:25;16.37;30.31
66102;HTU21D;52883;51.094;5.880;2024-03-02T14:30:50;16.62;30.51
66102;HTU21D;52883;51.094;5.880;2024-03-02T14:33:16;16.76;28.82
66102;HTU21D;52883;51.094;5.880;2024-03-02T14:35:42;16.80;28.74
66102;HTU21D;52883;51.094;5.880;2024-03-02T14:38:08;16.94;28.19
66102;HTU21D;52883;51.094;5.880;2024-03-02T14:40:34;17.04;28.98
66102;HTU21D;52883;51.094;5.880;2024-03-02T14:42:59;17.15;28.51
66102;HTU21D;52883;51.094;5.880;2024-03-02T14:45:25;17.26;26.82
66102;HTU21D;52883;51.094;5.880;2024-03-02T14:47:52;17.17;28.93
66102;HTU21D;52883;51.094;5.880;2024-03-02T14:50:18;17.03;28.87
66102;HTU21D;52883;51.094;5.880;2024-03-02T14:52:46;16.79;30.06
66102;HTU21D;52883;51.094;5.880;2024-03-02T14:55:12;16.79;31.05
66102;HTU21D;52883;51.094;5.880;2024-03-02T14:57:38;16.72;31.16
66102;HTU21D;52883;51.094;5.880;2024-03-02T15:00:04;16.50;31.85
66102;HTU21D;52883;51.094;5.880;2024-03-02T15:02:33;16.25;32.37
66102;HTU21D;52883;51.094;5.880;2024-03-02T15:05:00;15.97;33.13
66102;HTU21D;52883;51.094;5.880;2024-03-02T15:07:25;15.70;34.45
66102;HTU21D;52883;51.094;5.880;2024-03-02T15:09:51;15.62;35.18
66102;HTU21D;52883;51.094;5.880;2024-03-02T15:12:16;15.54;35.88
66102;HTU21D;52883;51.094;5.880;2024-03-02T15:14:43;15.43;37.18
66102;HTU21D;52883;51.094;5.880;2024-03-02T15:17:13;15.37;38.16
66102;HTU21D;52883;51.094;5.880;2024-03-02T15:19:42;15.25;37.95
66102;HTU21D;52883;51.094;5.880;2024-03-02T15:22:08;15.14;39.01
66102;HTU21D;52883;51.094;5.880;2024-03-02T15:24:36;15.08;39.90
66102;HTU21D;52883;51.094;5.880;2024-03-02T15:27:02;15.04;40.68